sensor_id;sensor_type;location;lat;lon;timestamp;temperature;humidity
25346;DHT22;13300;51.032;3.710;2023-04-25T00:00:08;10.60;99.90
25346;DHT22;13300;51.032;3.710;2023-04-25T00:02:34;10.60;99.90
25346;DHT22;13300;51.032;3.710;2023-04-25T00:05:07;10.70;99.90
25346;DHT22;13300;51.032;3.710;2023-04-25T00:07:39;10.70;99.90
25346;DHT22;13300;51.032;3.710;2023-04-25T00:10:08;10.70;99.90
25346;DHT22;13300;51.032;3.710;2023-04-25T00:12:47;10.60;99.90
25346;DHT22;13300;51.032;3.710;2023-04-25T00:15:13;10.60;99.90
25346;DHT22;13300;51.032;3.710;2023-04-25T00:17:39;10.60;99.90
25346;DHT22;13300;51.032;3.710;2023-04-25T00:20:05;10.50;99.90
25346;DHT22;13300;51.032;3.710;2023-04-25T00:22:33;10.60;99.90
25346;DHT22;13300;51.032;3.710;2023-04-25T00:25:00;10.60;99.90
25346;DHT22;13300;51.032;3.710;2023-04-25T00:27:26;10.60;99.90
25346;DHT22;13300;51.032;3.710;2023-04-25T00:29:55;10.50;99.90
25346;DHT22;13300;51.032;3.710;2023-04-25T00:32:20;10.50;99.90
25346;DHT22;13300;51.032;3.710;2023-04-25T00:34:46;10.50;99.90
25346;DHT22;13300;51.032;3.710;2023-04-25T00:37:12;10.60;99.90
25346;DHT22;13300;51.032;3.710;2023-04-25T00:39:42;10.60;99.90
25346;DHT22;13300;51.032;3.710;2023-04-25T00:42:11;10.50;99.90
25346;DHT22;13300;51.032;3.710;2023-04-25T00:44:39;10.50;99.90
25346;DHT22;13300;51.032;3.710;2023-04-25T00:47:06;10.40;99.90
25346;DHT22;13300;51.032;3.710;2023-04-25T00:49:34;10.40;99.90
25346;DHT22;13300;51.032;3.710;2023-04-25T00:52:00;10.40;99.90
25346;DHT22;13300;51.032;3.710;2023-04-25T00:54:26;10.50;99.90
25346;DHT22;13300;51.032;3.710;2023-04-25T00:56:52;10.40;99.90
25346;DHT22;13300;51.032;3.710;2023-04-25T00:59:19;10.40;99.90
25346;DHT22;13300;51.032;3.710;2023-04-25T01:01:46;10.50;99.90
25346;DHT22;13300;51.032;3.710;2023-04-25T01:04:13;10.40;99.90
25346;DHT22;13300;51.032;3.710;2023-04-25T01:06:39;10.40;99.90
25346;DHT22;13300;51.032;3.710;2023-04-25T01:09:05;10.30;99.90
25346;DHT22;13300;51.032;3.710;2023-04-25T01:11:31;10.30;99.90
25346;DHT22;13300;51.032;3.710;2023-04-25T01:13:59;10.30;99.90
25346;DHT22;13300;51.032;3.710;2023-04-25T01:16:28;10.20;99.90
25346;DHT22;13300;51.032;3.710;2023-04-25T01:18:54;10.20;99.90
25346;DHT22;13300;51.032;3.710;2023-04-25T01:21:20;10.30;99.90
25346;DHT22;13300;51.032;3.710;2023-04-25T01:23:46;10.30;99.90
25346;DHT22;13300;51.032;3.710;2023-04-25T01:26:13;10.20;99.90
25346;DHT22;13300;51.032;3.710;2023-04-25T01:28:39;10.20;99.90
25346;DHT22;13300;51.032;3.710;2023-04-25T01:31:08;10.20;99.90
25346;DHT22;13300;51.032;3.710;2023-04-25T01:33:34;10.10;99.90
25346;DHT22;13300;51.032;3.710;2023-04-25T01:36:00;10.00;99.90
25346;DHT22;13300;51.032;3.710;2023-04-25T01:38:26;10.00;99.90
25346;DHT22;13300;51.032;3.710;2023-04-25T01:40:52;10.10;99.90
25346;DHT22;13300;51.032;3.710;2023-04-25T01:43:19;10.00;99.90
25346;DHT22;13300;51.032;3.710;2023-04-25T01:45:45;10.00;99.90
25346;DHT22;13300;51.032;3.710;2023-04-25T01:48:12;10.00;99.90
25346;DHT22;13300;51.032;3.710;2023-04-25T01:50:39;10.00;99.90
25346;DHT22;13300;51.032;3.710;2023-04-25T01:53:05;10.00;99.90
25346;DHT22;13300;51.032;3.710;2023-04-25T01:55:31;9.90;99.90
25346;DHT22;13300;51.032;3.710;2023-04-25T01:57:57;9.90;99.90
25346;DHT22;13300;51.032;3.710;2023-04-25T02:00:26;9.80;99.90
25346;DHT22;13300;51.032;3.710;2023-04-25T02:02:52;9.60;99.90
25346;DHT22;13300;51.032;3.710;2023-04-25T02:05:19;9.60;99.90
25346;DHT22;13300;51.032;3.710;2023-04-25T02:07:47;9.50;99.90
25346;DHT22;13300;51.032;3.710;2023-04-25T02:10:13;9.50;99.90
25346;DHT22;13300;51.032;3.710;2023-04-25T02:12:39;9.50;99.90
25346;DHT22;13300;51.032;3.710;2023-04-25T02:15:05;9.40;99.90
25346;DHT22;13300;51.032;3.710;2023-04-25T02:17:31;9.40;99.90
25346;DHT22;13300;51.032;3.710;2023-04-25T02:19:57;9.50;99.90
25346;DHT22;13300;51.032;3.710;2023-04-25T02:22:23;9.50;99.90
25346;DHT22;13300;51.032;3.710;2023-04-25T02:24:52;9.50;99.90
25346;DHT22;13300;51.032;3.710;2023-04-25T02:27:18;9.40;99.90
25346;DHT22;13300;51.032;3.710;2023-04-25T02:29:44;9.40;99.90
25346;DHT22;13300;51.032;3.710;2023-04-25T02:32:09;9.40;99.90
25346;DHT22;13300;51.032;3.710;2023-04-25T02:34:35;9.30;99.90
25346;DHT22;13300;51.032;3.710;2023-04-25T02:37:01;9.30;99.90
25346;DHT22;13300;51.032;3.710;2023-04-25T02:39:27;9.30;99.90
25346;DHT22;13300;51.032;3.710;2023-04-25T02:41:52;9.40;99.90
25346;DHT22;13300;51.032;3.710;2023-04-25T02:44:18;9.30;99.90
25346;DHT22;13300;51.032;3.710;2023-04-25T02:46:45;9.40;99.90
25346;DHT22;13300;51.032;3.710;2023-04-25T02:49:13;9.40;99.90
25346;DHT22;13300;51.032;3.710;2023-04-25T02:51:40;9.30;99.90
25346;DHT22;13300;51.032;3.710;2023-04-25T02:54:05;9.40;99.90
25346;DHT22;13300;51.032;3.710;2023-04-25T02:56:31;9.30;99.90
25346;DHT22;13300;51.032;3.710;2023-04-25T02:58:57;9.30;99.90
25346;DHT22;13300;51.032;3.710;2023-04-25T03:01:23;9.40;99.90
25346;DHT22;13300;51.032;3.710;2023-04-25T03:03:50;9.40;99.90
25346;DHT22;13300;51.032;3.710;2023-04-25T03:06:16;9.40;99.90
25346;DHT22;13300;51.032;3.710;2023-04-25T03:08:41;9.20;99.90
25346;DHT22;13300;51.032;3.710;2023-04-25T03:11:07;9.30;99.90
25346;DHT22;13300;51.032;3.710;2023-04-25T03:13:33;9.20;99.90
25346;DHT22;13300;51.032;3.710;2023-04-25T03:15:58;9.20;99.90
25346;DHT22;13300;51.032;3.710;2023-04-25T03:18:24;9.20;99.90
25346;DHT22;13300;51.032;3.710;2023-04-25T03:20:50;9.10;99.90
25346;DHT22;13300;51.032;3.710;2023-04-25T03:23:16;9.10;99.90
25346;DHT22;13300;51.032;3.710;2023-04-25T03:25:44;9.00;99.90
25346;DHT22;13300;51.032;3.710;2023-04-25T03:28:12;8.90;99.90
25346;DHT22;13300;51.032;3.710;2023-04-25T03:30:38;8.90;99.90
25346;DHT22;13300;51.032;3.710;2023-04-25T03:33:04;8.80;99.90
25346;DHT22;13300;51.032;3.710;2023-04-25T03:35:29;8.80;99.90
25346;DHT22;13300;51.032;3.710;2023-04-25T03:37:55;8.80;99.90
25346;DHT22;13300;51.032;3.710;2023-04-25T03:40:21;8.80;99.90
25346;DHT22;13300;51.032;3.710;2023-04-25T03:42:47;8.80;99.90
25346;DHT22;13300;51.032;3.710;2023-04-25T03:45:12;8.70;99.90
25346;DHT22;13300;51.032;3.710;2023-04-25T03:47:38;8.60;99.90
25346;DHT22;13300;51.032;3.710;2023-04-25T03:50:04;8.60;99.90
25346;DHT22;13300;51.032;3.710;2023-04-25T03:52:30;8.60;99.90
25346;DHT22;13300;51.032;3.710;2023-04-25T03:54:56;8.60;99.90
25346;DHT22;13300;51.032;3.710;2023-04-25T03:57:21;8.70;99.90
25346;DHT22;13300;51.032;3.710;2023-04-25T03:59:47;8.90;99.90
25346;DHT22;13300;51.032;3.710;2023-04-25T04:02:13;9.00;99.90
25346;DHT22;13300;51.032;3.710;2023-04-25T04:04:38;9.00;99.90
25346;DHT22;13300;51.032;3.710;2023-04-25T04:07:04;9.10;99.90
25346;DHT22;13300;51.032;3.710;2023-04-25T04:09:30;9.10;99.90
25346;DHT22;13300;51.032;3.710;2023-04-25T04:11:56;9.00;99.90
25346;DHT22;13300;51.032;3.710;2023-04-25T04:14:21;9.00;99.90
25346;DHT22;13300;51.032;3.710;2023-04-25T04:16:53;9.00;99.90
25346;DHT22;13300;51.032;3.710;2023-04-25T04:19:19;9.10;99.90
25346;DHT22;13300;51.032;3.710;2023-04-25T04:21:45;9.10;99.90
25346;DHT22;13300;51.032;3.710;2023-04-25T04:24:11;9.00;99.90
25346;DHT22;13300;51.032;3.710;2023-04-25T04:26:37;9.00;99.90
25346;DHT22;13300;51.032;3.710;2023-04-25T04:29:04;9.00;99.90
25346;DHT22;13300;51.032;3.710;2023-04-25T04:31:30;9.10;99.90
25346;DHT22;13300;51.032;3.710;2023-04-25T04:33:55;9.00;99.90
25346;DHT22;13300;51.032;3.710;2023-04-25T04:36:21;9.10;99.90
25346;DHT22;13300;51.032;3.710;2023-04-25T04:38:48;9.10;99.90
25346;DHT22;13300;51.032;3.710;2023-04-25T04:41:14;9.10;99.90
25346;DHT22;13300;51.032;3.710;2023-04-25T04:43:40;9.10;99.90
25346;DHT22;13300;51.032;3.710;2023-04-25T04:46:05;9.10;99.90
25346;DHT22;13300;51.032;3.710;2023-04-25T04:48:32;9.10;99.90
25346;DHT22;13300;51.032;3.710;2023-04-25T04:50:59;9.20;99.90
25346;DHT22;13300;51.032;3.710;2023-04-25T04:53:25;9.10;99.90
25346;DHT22;13300;51.032;3.710;2023-04-25T04:55:51;9.00;99.90
25346;DHT22;13300;51.032;3.710;2023-04-25T04:58:17;9.00;99.90
25346;DHT22;13300;51.032;3.710;2023-04-25T05:00:42;9.10;99.90
25346;DHT22;13300;51.032;3.710;2023-04-25T05:03:08;9.10;99.90
25346;DHT22;13300;51.032;3.710;2023-04-25T05:05:34;9.00;99.90
25346;DHT22;13300;51.032;3.710;2023-04-25T05:08:00;9.00;99.90
25346;DHT22;13300;51.032;3.710;2023-04-25T05:10:25;9.00;99.90
25346;DHT22;13300;51.032;3.710;2023-04-25T05:12:51;9.10;99.90
25346;DHT22;13300;51.032;3.710;2023-04-25T05:15:18;9.20;99.90
25346;DHT22;13300;51.032;3.710;2023-04-25T05:17:44;9.20;99.90
25346;DHT22;13300;51.032;3.710;2023-04-25T05:20:10;9.20;99.90
25346;DHT22;13300;51.032;3.710;2023-04-25T05:22:36;9.30;99.90
25346;DHT22;13300;51.032;3.710;2023-04-25T05:25:01;9.40;99.90
25346;DHT22;13300;51.032;3.710;2023-04-25T05:27:28;9.50;99.90
25346;DHT22;13300;51.032;3.710;2023-04-25T05:29:54;9.50;99.90
25346;DHT22;13300;51.032;3.710;2023-04-25T05:32:20;9.60;99.90
25346;DHT22;13300;51.032;3.710;2023-04-25T05:34:45;9.60;99.90
25346;DHT22;13300;51.032;3.710;2023-04-25T05:37:11;9.60;99.90
25346;DHT22;13300;51.032;3.710;2023-04-25T05:39:37;9.60;99.90
25346;DHT22;13300;51.032;3.710;2023-04-25T05:42:03;9.60;99.90
25346;DHT22;13300;51.032;3.710;2023-04-25T05:44:29;9.60;99.90
25346;DHT22;13300;51.032;3.710;2023-04-25T05:46:55;9.50;99.90
25346;DHT22;13300;51.032;3.710;2023-04-25T05:49:21;9.60;99.90
25346;DHT22;13300;51.032;3.710;2023-04-25T05:51:46;9.70;99.90
25346;DHT22;13300;51.032;3.710;2023-04-25T05:54:14;9.70;99.90
25346;DHT22;13300;51.032;3.710;2023-04-25T05:56:40;9.80;99.90
25346;DHT22;13300;51.032;3.710;2023-04-25T05:59:06;9.90;99.90
25346;DHT22;13300;51.032;3.710;2023-04-25T06:01:31;9.90;99.90
25346;DHT22;13300;51.032;3.710;2023-04-25T06:03:57;9.80;99.90
25346;DHT22;13300;51.032;3.710;2023-04-25T06:06:23;9.70;99.90
25346;DHT22;13300;51.032;3.710;2023-04-25T06:08:48;9.70;99.90
25346;DHT22;13300;51.032;3.710;2023-04-25T06:11:14;9.70;99.90
25346;DHT22;13300;51.032;3.710;2023-04-25T06:13:40;9.70;99.90
25346;DHT22;13300;51.032;3.710;2023-04-25T06:16:06;9.80;99.90
25346;DHT22;13300;51.032;3.710;2023-04-25T06:18:31;9.90;99.90
25346;DHT22;13300;51.032;3.710;2023-04-25T06:20:57;10.10;99.90
25346;DHT22;13300;51.032;3.710;2023-04-25T06:23:23;10.30;99.90
25346;DHT22;13300;51.032;3.710;2023-04-25T06:25:48;10.40;99.90
25346;DHT22;13300;51.032;3.710;2023-04-25T06:28:14;10.40;99.90
25346;DHT22;13300;51.032;3.710;2023-04-25T06:30:40;10.50;99.90
25346;DHT22;13300;51.032;3.710;2023-04-25T06:33:06;10.50;99.90
25346;DHT22;13300;51.032;3.710;2023-04-25T06:35:34;10.50;99.90
25346;DHT22;13300;51.032;3.710;2023-04-25T06:38:00;10.40;99.90
25346;DHT22;13300;51.032;3.710;2023-04-25T06:40:26;10.50;99.90
25346;DHT22;13300;51.032;3.710;2023-04-25T06:42:52;10.40;99.90
25346;DHT22;13300;51.032;3.710;2023-04-25T06:45:17;10.20;99.90
25346;DHT22;13300;51.032;3.710;2023-04-25T06:47:43;10.20;99.90
25346;DHT22;13300;51.032;3.710;2023-04-25T06:50:09;10.30;99.90
25346;DHT22;13300;51.032;3.710;2023-04-25T06:52:36;10.50;99.90
25346;DHT22;13300;51.032;3.710;2023-04-25T06:55:02;10.60;99.90
25346;DHT22;13300;51.032;3.710;2023-04-25T06:57:28;10.70;99.90
25346;DHT22;13300;51.032;3.710;2023-04-25T06:59:53;10.80;99.90
25346;DHT22;13300;51.032;3.710;2023-04-25T07:02:19;10.90;99.90
25346;DHT22;13300;51.032;3.710;2023-04-25T07:04:46;11.00;99.90
25346;DHT22;13300;51.032;3.710;2023-04-25T07:07:12;11.00;99.90
25346;DHT22;13300;51.032;3.710;2023-04-25T07:09:38;11.00;99.90
25346;DHT22;13300;51.032;3.710;2023-04-25T07:12:04;11.10;99.90
25346;DHT22;13300;51.032;3.710;2023-04-25T07:14:30;11.10;99.90
25346;DHT22;13300;51.032;3.710;2023-04-25T07:16:55;11.30;99.90
25346;DHT22;13300;51.032;3.710;2023-04-25T07:19:22;11.90;99.90
25346;DHT22;13300;51.032;3.710;2023-04-25T07:21:49;12.70;99.90
25346;DHT22;13300;51.032;3.710;2023-04-25T07:24:15;13.30;99.90
25346;DHT22;13300;51.032;3.710;2023-04-25T07:26:40;14.00;99.90
25346;DHT22;13300;51.032;3.710;2023-04-25T07:29:06;14.30;99.90
25346;DHT22;13300;51.032;3.710;2023-04-25T07:31:32;14.20;99.90
25346;DHT22;13300;51.032;3.710;2023-04-25T07:33:57;13.80;99.90
25346;DHT22;13300;51.032;3.710;2023-04-25T07:36:23;13.90;99.90
25346;DHT22;13300;51.032;3.710;2023-04-25T07:38:49;13.70;99.90
25346;DHT22;13300;51.032;3.710;2023-04-25T07:41:15;13.80;99.90
25346;DHT22;13300;51.032;3.710;2023-04-25T07:43:40;14.50;99.90
25346;DHT22;13300;51.032;3.710;2023-04-25T07:46:06;15.30;99.90
25346;DHT22;13300;51.032;3.710;2023-04-25T07:48:32;16.30;99.90
25346;DHT22;13300;51.032;3.710;2023-04-25T07:50:57;17.00;99.90
25346;DHT22;13300;51.032;3.710;2023-04-25T07:53:23;17.50;99.90
25346;DHT22;13300;51.032;3.710;2023-04-25T07:55:49;17.40;99.00
25346;DHT22;13300;51.032;3.710;2023-04-25T07:58:15;17.70;99.20
25346;DHT22;13300;51.032;3.710;2023-04-25T08:00:41;18.30;97.90
25346;DHT22;13300;51.032;3.710;2023-04-25T08:03:09;19.20;96.80
25346;DHT22;13300;51.032;3.710;2023-04-25T08:05:34;19.90;94.70
25346;DHT22;13300;51.032;3.710;2023-04-25T08:08:00;20.10;93.50
25346;DHT22;13300;51.032;3.710;2023-04-25T08:10:27;19.40;93.10
25346;DHT22;13300;51.032;3.710;2023-04-25T08:12:53;19.10;93.50
25346;DHT22;13300;51.032;3.710;2023-04-25T08:15:19;18.30;94.20
25346;DHT22;13300;51.032;3.710;2023-04-25T08:17:45;17.30;94.70
25346;DHT22;13300;51.032;3.710;2023-04-25T08:20:11;16.30;96.50
25346;DHT22;13300;51.032;3.710;2023-04-25T08:22:37;15.40;97.80
25346;DHT22;13300;51.032;3.710;2023-04-25T08:25:03;14.60;99.80
25346;DHT22;13300;51.032;3.710;2023-04-25T08:27:28;13.90;99.90
25346;DHT22;13300;51.032;3.710;2023-04-25T08:29:55;13.90;99.90
25346;DHT22;13300;51.032;3.710;2023-04-25T08:32:20;13.80;99.90
25346;DHT22;13300;51.032;3.710;2023-04-25T08:34:46;13.90;99.90
25346;DHT22;13300;51.032;3.710;2023-04-25T08:37:12;14.80;99.90
25346;DHT22;13300;51.032;3.710;2023-04-25T08:39:41;16.40;99.70
25346;DHT22;13300;51.032;3.710;2023-04-25T08:42:07;17.00;96.00
25346;DHT22;13300;51.032;3.710;2023-04-25T08:44:34;17.70;94.50
25346;DHT22;13300;51.032;3.710;2023-04-25T08:47:05;18.30;92.70
25346;DHT22;13300;51.032;3.710;2023-04-25T08:49:34;18.60;91.80
25346;DHT22;13300;51.032;3.710;2023-04-25T08:52:01;18.50;91.30
25346;DHT22;13300;51.032;3.710;2023-04-25T08:54:28;18.80;91.30
25346;DHT22;13300;51.032;3.710;2023-04-25T08:56:56;19.40;90.40
25346;DHT22;13300;51.032;3.710;2023-04-25T08:59:25;19.70;89.90
25346;DHT22;13300;51.032;3.710;2023-04-25T09:01:51;20.40;90.00
25346;DHT22;13300;51.032;3.710;2023-04-25T09:04:18;20.80;85.90
25346;DHT22;13300;51.032;3.710;2023-04-25T09:06:46;21.00;85.40
25346;DHT22;13300;51.032;3.710;2023-04-25T09:09:11;20.50;84.80
25346;DHT22;13300;51.032;3.710;2023-04-25T09:11:37;19.80;85.60
25346;DHT22;13300;51.032;3.710;2023-04-25T09:14:17;18.40;88.10
25346;DHT22;13300;51.032;3.710;2023-04-25T09:19:26;15.60;96.10
25346;DHT22;13300;51.032;3.710;2023-04-25T09:21:56;14.20;99.90
25346;DHT22;13300;51.032;3.710;2023-04-25T09:24:42;13.50;99.90
25346;DHT22;13300;51.032;3.710;2023-04-25T09:27:11;12.90;99.90
25346;DHT22;13300;51.032;3.710;2023-04-25T09:29:41;12.60;99.90
25346;DHT22;13300;51.032;3.710;2023-04-25T09:32:28;12.30;99.90
25346;DHT22;13300;51.032;3.710;2023-04-25T09:34:55;12.10;99.90
25346;DHT22;13300;51.032;3.710;2023-04-25T09:37:22;11.90;99.90
25346;DHT22;13300;51.032;3.710;2023-04-25T09:39:50;11.90;99.90
25346;DHT22;13300;51.032;3.710;2023-04-25T09:42:16;12.00;99.90
25346;DHT22;13300;51.032;3.710;2023-04-25T09:44:43;12.10;99.90
25346;DHT22;13300;51.032;3.710;2023-04-25T09:47:11;12.40;99.90
25346;DHT22;13300;51.032;3.710;2023-04-25T09:49:42;12.60;99.90
25346;DHT22;13300;51.032;3.710;2023-04-25T09:52:10;13.00;99.90
25346;DHT22;13300;51.032;3.710;2023-04-25T09:54:38;14.80;99.90
25346;DHT22;13300;51.032;3.710;2023-04-25T09:57:24;17.30;99.90
25346;DHT22;13300;51.032;3.710;2023-04-25T09:59:51;18.60;96.10
25346;DHT22;13300;51.032;3.710;2023-04-25T10:02:19;18.30;95.70
25346;DHT22;13300;51.032;3.710;2023-04-25T10:04:48;17.30;96.50
25346;DHT22;13300;51.032;3.710;2023-04-25T10:07:14;16.70;97.40
25346;DHT22;13300;51.032;3.710;2023-04-25T10:09:40;16.40;97.50
25346;DHT22;13300;51.032;3.710;2023-04-25T10:12:07;15.50;98.40
25346;DHT22;13300;51.032;3.710;2023-04-25T10:14:34;15.00;99.50
25346;DHT22;13300;51.032;3.710;2023-04-25T10:17:00;14.70;99.90
25346;DHT22;13300;51.032;3.710;2023-04-25T10:19:27;14.40;99.90
25346;DHT22;13300;51.032;3.710;2023-04-25T10:24:55;14.30;99.90
25346;DHT22;13300;51.032;3.710;2023-04-25T10:27:21;14.50;99.90
25346;DHT22;13300;51.032;3.710;2023-04-25T10:30:03;14.70;99.90
25346;DHT22;13300;51.032;3.710;2023-04-25T10:32:33;14.70;99.90
25346;DHT22;13300;51.032;3.710;2023-04-25T10:35:19;14.60;99.90
25346;DHT22;13300;51.032;3.710;2023-04-25T10:38:05;14.50;99.90
25346;DHT22;13300;51.032;3.710;2023-04-25T10:40:34;14.30;99.90
25346;DHT22;13300;51.032;3.710;2023-04-25T10:45:56;13.80;99.90
25346;DHT22;13300;51.032;3.710;2023-04-25T10:48:26;15.00;99.90
25346;DHT22;13300;51.032;3.710;2023-04-25T10:51:12;17.00;99.90
25346;DHT22;13300;51.032;3.710;2023-04-25T10:53:40;18.10;97.60
25346;DHT22;13300;51.032;3.710;2023-04-25T10:59:17;17.70;97.50
25346;DHT22;13300;51.032;3.710;2023-04-25T11:01:46;18.70;96.20
25346;DHT22;13300;51.032;3.710;2023-04-25T11:04:24;19.00;95.60
25346;DHT22;13300;51.032;3.710;2023-04-25T11:09:39;18.60;94.50
25346;DHT22;13300;51.032;3.710;2023-04-25T11:12:08;18.40;94.00
25346;DHT22;13300;51.032;3.710;2023-04-25T11:14:35;18.80;93.60
25346;DHT22;13300;51.032;3.710;2023-04-25T11:17:00;19.40;91.70
25346;DHT22;13300;51.032;3.710;2023-04-25T11:19:29;18.50;91.30
25346;DHT22;13300;51.032;3.710;2023-04-25T11:21:55;17.80;92.50
25346;DHT22;13300;51.032;3.710;2023-04-25T11:24:32;17.30;93.10
25346;DHT22;13300;51.032;3.710;2023-04-25T11:27:00;16.80;93.50
25346;DHT22;13300;51.032;3.710;2023-04-25T11:29:28;16.10;94.80
25346;DHT22;13300;51.032;3.710;2023-04-25T11:31:58;15.80;95.00
25346;DHT22;13300;51.032;3.710;2023-04-25T11:34:24;15.30;94.50
25346;DHT22;13300;51.032;3.710;2023-04-25T11:36:51;15.10;94.70
25346;DHT22;13300;51.032;3.710;2023-04-25T11:39:20;15.00;94.50
25346;DHT22;13300;51.032;3.710;2023-04-25T11:41:46;14.80;94.80
25346;DHT22;13300;51.032;3.710;2023-04-25T11:44:16;14.60;95.90
25346;DHT22;13300;51.032;3.710;2023-04-25T11:46:42;15.50;95.90
25346;DHT22;13300;51.032;3.710;2023-04-25T11:49:08;17.50;95.10
25346;DHT22;13300;51.032;3.710;2023-04-25T11:51:47;18.90;92.30
25346;DHT22;13300;51.032;3.710;2023-04-25T11:54:14;19.30;92.30
25346;DHT22;13300;51.032;3.710;2023-04-25T11:56:44;19.50;91.90
25346;DHT22;13300;51.032;3.710;2023-04-25T11:59:10;19.20;91.70
25346;DHT22;13300;51.032;3.710;2023-04-25T12:01:40;19.30;92.30
25346;DHT22;13300;51.032;3.710;2023-04-25T12:04:14;19.20;91.60
25346;DHT22;13300;51.032;3.710;2023-04-25T12:06:42;19.20;91.50
25346;DHT22;13300;51.032;3.710;2023-04-25T12:09:09;19.30;90.30
25346;DHT22;13300;51.032;3.710;2023-04-25T12:11:47;18.80;89.90
25346;DHT22;13300;51.032;3.710;2023-04-25T12:14:24;19.00;89.80
25346;DHT22;13300;51.032;3.710;2023-04-25T12:16:51;18.40;89.20
25346;DHT22;13300;51.032;3.710;2023-04-25T12:19:18;18.00;90.80
25346;DHT22;13300;51.032;3.710;2023-04-25T12:21:44;17.20;91.90
25346;DHT22;13300;51.032;3.710;2023-04-25T12:24:18;16.40;92.70
25346;DHT22;13300;51.032;3.710;2023-04-25T12:26:58;16.70;92.80
25346;DHT22;13300;51.032;3.710;2023-04-25T12:29:26;18.00;91.60
25346;DHT22;13300;51.032;3.710;2023-04-25T12:31:53;19.30;89.40
25346;DHT22;13300;51.032;3.710;2023-04-25T12:34:20;20.40;87.90
25346;DHT22;13300;51.032;3.710;2023-04-25T12:36:47;20.40;86.30
25346;DHT22;13300;51.032;3.710;2023-04-25T12:39:23;19.30;86.20
25346;DHT22;13300;51.032;3.710;2023-04-25T12:41:50;17.90;89.50
25346;DHT22;13300;51.032;3.710;2023-04-25T12:44:16;16.80;90.10
25346;DHT22;13300;51.032;3.710;2023-04-25T12:46:42;15.80;91.40
25346;DHT22;13300;51.032;3.710;2023-04-25T12:49:08;15.50;92.20
25346;DHT22;13300;51.032;3.710;2023-04-25T12:51:34;15.50;92.60
25346;DHT22;13300;51.032;3.710;2023-04-25T12:54:01;16.00;92.80
25346;DHT22;13300;51.032;3.710;2023-04-25T12:56:28;16.20;93.30
25346;DHT22;13300;51.032;3.710;2023-04-25T12:58:54;16.00;93.50
25346;DHT22;13300;51.032;3.710;2023-04-25T13:01:20;15.80;93.40
25346;DHT22;13300;51.032;3.710;2023-04-25T13:03:47;15.70;94.10
25346;DHT22;13300;51.032;3.710;2023-04-25T13:06:13;16.10;94.60
25346;DHT22;13300;51.032;3.710;2023-04-25T13:08:39;17.10;93.80
25346;DHT22;13300;51.032;3.710;2023-04-25T13:11:07;16.90;93.60
25346;DHT22;13300;51.032;3.710;2023-04-25T13:13:32;16.40;93.80
25346;DHT22;13300;51.032;3.710;2023-04-25T13:16:01;15.80;94.20
25346;DHT22;13300;51.032;3.710;2023-04-25T13:18:27;15.30;94.70
25346;DHT22;13300;51.032;3.710;2023-04-25T13:20:53;15.10;95.00
25346;DHT22;13300;51.032;3.710;2023-04-25T13:23:19;15.20;95.50
25346;DHT22;13300;51.032;3.710;2023-04-25T13:25:46;15.70;95.70
25346;DHT22;13300;51.032;3.710;2023-04-25T13:28:12;15.70;94.70
25346;DHT22;13300;51.032;3.710;2023-04-25T13:30:39;16.40;94.50
25346;DHT22;13300;51.032;3.710;2023-04-25T13:33:04;17.50;93.50
25346;DHT22;13300;51.032;3.710;2023-04-25T13:35:36;17.00;94.30
25346;DHT22;13300;51.032;3.710;2023-04-25T13:38:02;16.90;94.60
25346;DHT22;13300;51.032;3.710;2023-04-25T13:40:27;16.20;95.70
25346;DHT22;13300;51.032;3.710;2023-04-25T13:42:53;15.60;96.70
25346;DHT22;13300;51.032;3.710;2023-04-25T13:45:20;14.80;97.70
25346;DHT22;13300;51.032;3.710;2023-04-25T13:47:46;14.40;98.00
25346;DHT22;13300;51.032;3.710;2023-04-25T13:50:11;13.80;98.80
25346;DHT22;13300;51.032;3.710;2023-04-25T13:52:37;13.60;98.40
25346;DHT22;13300;51.032;3.710;2023-04-25T13:55:03;13.90;97.80
25346;DHT22;13300;51.032;3.710;2023-04-25T13:57:35;14.40;97.90
25346;DHT22;13300;51.032;3.710;2023-04-25T14:00:02;14.90;96.80
25346;DHT22;13300;51.032;3.710;2023-04-25T14:02:34;15.70;96.10
25346;DHT22;13300;51.032;3.710;2023-04-25T14:05:01;16.10;95.00
25346;DHT22;13300;51.032;3.710;2023-04-25T14:07:27;15.80;94.20
25346;DHT22;13300;51.032;3.710;2023-04-25T14:09:52;15.50;94.40
25346;DHT22;13300;51.032;3.710;2023-04-25T14:12:18;15.10;94.80
25346;DHT22;13300;51.032;3.710;2023-04-25T14:14:44;15.00;95.10
25346;DHT22;13300;51.032;3.710;2023-04-25T14:17:09;15.80;94.70
25346;DHT22;13300;51.032;3.710;2023-04-25T14:19:35;16.90;92.00
25346;DHT22;13300;51.032;3.710;2023-04-25T14:22:03;17.90;91.10
25346;DHT22;13300;51.032;3.710;2023-04-25T14:24:28;18.80;89.30
25346;DHT22;13300;51.032;3.710;2023-04-25T14:26:54;19.50;87.10
25346;DHT22;13300;51.032;3.710;2023-04-25T14:29:20;19.20;86.10
25346;DHT22;13300;51.032;3.710;2023-04-25T14:31:45;18.50;88.70
25346;DHT22;13300;51.032;3.710;2023-04-25T14:34:11;18.60;89.80
25346;DHT22;13300;51.032;3.710;2023-04-25T14:36:37;18.40;88.70
25346;DHT22;13300;51.032;3.710;2023-04-25T14:39:03;17.90;87.80
25346;DHT22;13300;51.032;3.710;2023-04-25T14:41:30;17.30;90.70
25346;DHT22;13300;51.032;3.710;2023-04-25T14:43:56;16.60;91.00
25346;DHT22;13300;51.032;3.710;2023-04-25T14:46:22;16.00;91.50
25346;DHT22;13300;51.032;3.710;2023-04-25T14:48:49;16.00;91.40
25346;DHT22;13300;51.032;3.710;2023-04-25T14:51:15;16.40;91.40
25346;DHT22;13300;51.032;3.710;2023-04-25T14:53:41;16.10;91.50
25346;DHT22;13300;51.032;3.710;2023-04-25T14:56:07;15.40;91.80
25346;DHT22;13300;51.032;3.710;2023-04-25T14:58:33;14.80;92.10
25346;DHT22;13300;51.032;3.710;2023-04-25T15:00:59;14.40;93.40
25346;DHT22;13300;51.032;3.710;2023-04-25T15:03:25;14.10;94.30
25346;DHT22;13300;51.032;3.710;2023-04-25T15:05:51;14.00;95.10
25346;DHT22;13300;51.032;3.710;2023-04-25T15:08:17;13.90;95.50
25346;DHT22;13300;51.032;3.710;2023-04-25T15:10:44;13.60;95.90
25346;DHT22;13300;51.032;3.710;2023-04-25T15:13:10;13.40;96.30
25346;DHT22;13300;51.032;3.710;2023-04-25T15:15:36;13.30;96.70
25346;DHT22;13300;51.032;3.710;2023-04-25T15:18:02;13.20;96.70
25346;DHT22;13300;51.032;3.710;2023-04-25T15:20:28;13.30;96.90
25346;DHT22;13300;51.032;3.710;2023-04-25T15:22:54;13.40;96.40
25346;DHT22;13300;51.032;3.710;2023-04-25T15:25:20;13.30;96.30
25346;DHT22;13300;51.032;3.710;2023-04-25T15:27:46;13.80;95.60
25346;DHT22;13300;51.032;3.710;2023-04-25T15:30:15;14.80;93.70
25346;DHT22;13300;51.032;3.710;2023-04-25T15:32:42;15.60;91.90
25346;DHT22;13300;51.032;3.710;2023-04-25T15:35:08;15.40;92.10
25346;DHT22;13300;51.032;3.710;2023-04-25T15:37:35;14.60;93.10
25346;DHT22;13300;51.032;3.710;2023-04-25T15:42:37;15.20;94.00
25346;DHT22;13300;51.032;3.710;2023-04-25T15:45:05;15.90;93.50
25346;DHT22;13300;51.032;3.710;2023-04-25T15:47:31;16.80;92.80
25346;DHT22;13300;51.032;3.710;2023-04-25T15:49:58;17.10;91.90